Time;durP1;ratioP1;P1;durP2;ratioP2;P2;SDS_P1;SDS_P2;PMS_P1;PMS_P2;Temp;Humidity;BMP_temperature;BMP_pressure;BME280_temperature;BME280_humidity;BME280_pressure;Samples;Min_cycle;Max_cycle;Signal;HPM_P1;HPM_P2
2023/12/11 14:57:31;;;;;;;17.80;8.07;;;6.00;99.90;;;;;;5124297;27;20112;-57
2023/12/11 14:59:57;;;;;;;17.88;7.68;;;6.00;99.90;;;;;;5121050;28;20062;-56
2023/12/11 15:02:22;;;;;;;18.90;8.35;;;5.90;99.90;;;;;;5123703;28;20062;-57
2023/12/11 15:04:48;;;;;;;18.27;8.23;;;6.00;99.90;;;;;;5123406;28;20029;-58
2023/12/11 15:07:14;;;;;;;15.05;6.90;;;6.10;99.90;;;;;;5123998;28;20498;-55
2023/12/11 15:09:39;;;;;;;19.67;8.98;;;6.10;99.90;;;;;;5123867;28;20031;-59
2023/12/11 15:12:06;;;;;;;23.98;11.43;;;6.10;99.90;;;;;;5124373;28;20019;-58
2023/12/11 15:14:32;;;;;;;43.42;15.48;;;6.10;99.90;;;;;;5123122;28;20023;-51
2023/12/11 15:16:58;;;;;;;49.75;15.30;;;6.10;99.90;;;;;;5123337;28;20043;-55
2023/12/11 15:19:23;;;;;;;24.50;10.35;;;6.10;99.90;;;;;;5123441;28;20027;-56
2023/12/11 15:21:49;;;;;;;34.13;11.75;;;6.20;99.90;;;;;;5123289;28;20525;-56
2023/12/11 15:24:15;;;;;;;20.58;10.68;;;6.10;99.90;;;;;;5122892;28;20719;-60
2023/12/11 15:26:40;;;;;;;35.67;13.45;;;6.20;99.90;;;;;;5122153;28;20118;-56
2023/12/11 15:29:07;;;;;;;24.92;11.00;;;6.10;99.90;;;;;;5122192;28;20027;-57
2023/12/11 15:31:33;;;;;;;19.95;8.73;;;6.10;99.90;;;;;;5123312;28;20367;-54
2023/12/11 15:34:00;;;;;;;19.70;9.70;;;6.10;99.90;;;;;;5122941;28;20031;-55
2023/12/11 15:36:26;;;;;;;24.23;10.27;;;6.10;99.90;;;;;;5123166;28;20565;-54
2023/12/11 15:38:51;;;;;;;23.90;10.27;;;6.10;99.90;;;;;;5123339;28;20076;-55
2023/12/11 15:41:17;;;;;;;22.48;11.98;;;6.10;99.90;;;;;;5123604;28;20031;-57
2023/12/11 15:43:47;;;;;;;26.27;10.73;;;6.00;99.90;;;;;;5123493;28;20024;-54
2023/12/11 15:46:13;;;;;;;29.17;11.45;;;6.10;99.90;;;;;;5123647;28;20470;-59
2023/12/11 15:48:45;;;;;;;23.20;9.88;;;6.10;99.90;;;;;;5123491;28;20027;-62
2023/12/11 15:51:12;;;;;;;27.95;11.38;;;6.10;99.90;;;;;;5122410;28;20604;-52
2023/12/11 15:53:41;;;;;;;26.02;12.25;;;6.10;99.90;;;;;;5122068;28;20103;-51
2023/12/11 15:56:12;;;;;;;27.73;12.77;;;6.10;99.90;;;;;;5119461;28;20146;-56
2023/12/11 15:58:38;;;;;;;20.17;10.48;;;6.10;99.90;;;;;;5121904;28;20023;-51
2023/12/11 16:01:06;;;;;;;21.95;9.93;;;6.00;99.90;;;;;;5122798;28;20016;-55
2023/12/11 16:03:33;;;;;;;21.73;9.55;;;6.00;99.90;;;;;;5123120;28;20063;-53
2023/12/11 16:05:59;;;;;;;19.23;8.93;;;6.00;99.90;;;;;;5123177;28;20050;-53
2023/12/11 16:08:24;;;;;;;22.10;10.63;;;6.00;99.90;;;;;;5093621;28;20609;-55
2023/12/11 16:10:50;;;;;;;24.67;10.38;;;6.20;99.90;;;;;;5108377;28;20028;-57
2023/12/11 16:13:16;;;;;;;37.25;15.77;;;6.20;99.90;;;;;;5108414;28;20024;-51
2023/12/11 16:15:42;;;;;;;37.33;15.68;;;6.20;99.90;;;;;;5107809;28;20055;-57
2023/12/11 16:18:07;;;;;;;22.60;10.57;;;6.20;99.90;;;;;;5108037;28;20031;-55
2023/12/11 16:20:33;;;;;;;36.17;13.20;;;6.20;99.90;;;;;;5108470;28;20072;-54
2023/12/11 16:22:59;;;;;;;25.63;11.23;;;6.20;99.90;;;;;;5107785;28;20466;-56
2023/12/11 16:25:25;;;;;;;22.45;9.60;;;6.30;99.90;;;;;;5107939;28;20497;-56
2023/12/11 16:27:50;;;;;;;33.70;13.00;;;6.20;99.90;;;;;;5107681;28;20023;-51
2023/12/11 16:30:16;;;;;;;34.70;13.40;;;6.20;99.90;;;;;;5107830;28;20031;-54
2023/12/11 16:32:43;;;;;;;27.63;10.63;;;6.30;99.90;;;;;;5107717;28;20484;-58
2023/12/11 16:35:08;;;;;;;18.48;8.43;;;6.30;99.90;;;;;;5107751;28;20023;-56
2023/12/11 16:37:34;;;;;;;17.20;8.07;;;6.20;99.90;;;;;;5107808;28;20092;-55
2023/12/11 16:40:00;;;;;;;17.67;8.60;;;6.20;99.90;;;;;;5108059;28;20442;-54
2023/12/11 16:42:27;;;;;;;15.32;7.38;;;6.20;99.90;;;;;;5107898;28;20030;-52
2023/12/11 16:44:52;;;;;;;18.02;8.75;;;6.20;99.90;;;;;;5105274;28;20027;-54
2023/12/11 16:47:18;;;;;;;15.35;8.00;;;6.20;99.90;;;;;;5107820;28;20023;-52
2023/12/11 16:49:44;;;;;;;16.05;7.68;;;6.20;99.90;;;;;;5107966;28;20024;-53
2023/12/11 16:52:10;;;;;;;19.00;9.50;;;6.20;99.90;;;;;;5107653;28;20039;-57
2023/12/11 16:54:36;;;;;;;16.60;8.23;;;6.20;99.90;;;;;;5107607;28;20062;-52
2023/12/11 16:57:02;;;;;;;18.80;9.50;;;6.30;99.90;;;;;;5107141;28;20108;-53
2023/12/11 16:59:28;;;;;;;20.85;8.95;;;6.20;99.90;;;;;;5107662;28;20027;-52
2023/12/11 17:01:54;;;;;;;17.58;8.27;;;6.20;99.90;;;;;;5107535;28;20027;-55
2023/12/11 17:04:19;;;;;;;20.33;8.50;;;6.20;99.90;;;;;;5107719;28;20028;-53
2023/12/11 17:06:45;;;;;;;21.25;10.13;;;6.20;99.90;;;;;;5107566;28;20039;-52
2023/12/11 17:09:10;;;;;;;25.73;10.82;;;6.20;99.90;;;;;;5107484;28;20401;-53
2023/12/11 17:11:36;;;;;;;19.55;9.15;;;6.10;99.90;;;;;;5107297;28;20482;-50
2023/12/11 17:14:03;;;;;;;21.42;9.93;;;6.10;99.90;;;;;;5107335;28;20027;-52
2023/12/11 17:16:29;;;;;;;23.85;11.13;;;6.10;99.90;;;;;;5107312;28;20039;-55
2023/12/11 17:18:55;;;;;;;25.48;10.95;;;6.10;99.90;;;;;;5106412;28;20042;-50
2023/12/11 17:21:24;;;;;;;20.52;8.90;;;6.10;99.90;;;;;;5107398;28;20028;-53
2023/12/11 17:23:50;;;;;;;19.45;10.10;;;6.10;99.90;;;;;;5107097;28;20133;-53
2023/12/11 17:26:16;;;;;;;35.90;11.47;;;6.10;99.90;;;;;;5107242;28;20062;-53
2023/12/11 17:28:42;;;;;;;23.40;11.40;;;6.00;99.90;;;;;;5107350;28;20289;-54
2023/12/11 17:31:08;;;;;;;25.52;12.30;;;6.00;99.90;;;;;;5107392;28;20028;-51
2023/12/11 17:33:34;;;;;;;28.70;13.38;;;6.00;99.90;;;;;;5107124;28;20032;-56
2023/12/11 17:36:00;;;;;;;25.73;12.27;;;6.00;99.90;;;;;;5107521;28;20027;-55
2023/12/11 17:38:25;;;;;;;28.85;13.18;;;6.00;99.90;;;;;;5107262;28;20103;-51
2023/12/11 17:40:51;;;;;;;24.25;10.73;;;6.00;99.90;;;;;;5106931;28;20462;-51
2023/12/11 17:43:17;;;;;;;21.02;10.25;;;6.00;99.90;;;;;;5107276;28;20095;-52
2023/12/11 17:45:42;;;;;;;17.70;9.05;;;6.00;99.90;;;;;;5106934;28;20046;-52
2023/12/11 17:48:08;;;;;;;19.52;9.77;;;6.00;99.90;;;;;;5106959;28;20039;-54
2023/12/11 17:50:35;;;;;;;20.08;9.98;;;6.10;99.90;;;;;;5106025;28;20020;-54
2023/12/11 17:53:01;;;;;;;18.10;7.75;;;6.10;99.90;;;;;;5106476;28;20423;-54
2023/12/11 17:55:27;;;;;;;16.07;7.03;;;6.10;99.90;;;;;;5107072;28;20108;-55
2023/12/11 17:57:53;;;;;;;14.02;7.43;;;6.10;99.90;;;;;;5108344;28;20028;-50
2023/12/11 18:00:20;;;;;;;15.88;7.72;;;6.20;99.90;;;;;;5107988;28;20038;-54
2023/12/11 18:02:46;;;;;;;;;;;6.10;99.90;;;;;;5108206;28;20095;-51
2023/12/11 18:05:12;;;;;;;16.27;7.55;;;6.00;99.90;;;;;;5107215;28;19907;-52
2023/12/11 18:07:37;;;;;;;17.20;7.80;;;6.00;99.90;;;;;;5107334;28;20023;-53
2023/12/11 18:10:03;;;;;;;19.30;9.07;;;6.00;99.90;;;;;;5106889;28;20024;-52
2023/12/11 18:12:29;;;;;;;15.98;7.57;;;5.90;99.90;;;;;;5106810;28;20028;-51
2023/12/11 18:14:55;;;;;;;17.58;8.25;;;5.90;99.90;;;;;;5108140;28;20854;-53
2023/12/11 18:17:20;;;;;;;20.13;9.85;;;5.90;99.90;;;;;;5106825;28;20101;-57
2023/12/11 18:19:46;;;;;;;19.25;8.30;;;5.90;99.90;;;;;;5107488;28;20019;-52
2023/12/11 18:22:12;;;;;;;16.15;8.13;;;5.90;99.90;;;;;;5107878;28;20030;-54
2023/12/11 18:24:37;;;;;;;15.80;8.50;;;5.90;99.90;;;;;;5107584;28;20131;-53
2023/12/11 18:27:03;;;;;;;16.40;7.85;;;6.00;99.90;;;;;;5107251;28;20657;-53
2023/12/11 18:29:28;;;;;;;17.42;8.75;;;6.00;99.90;;;;;;5107357;28;20362;-51
2023/12/11 18:31:54;;;;;;;17.00;8.57;;;5.90;99.90;;;;;;5107242;28;20549;-54
2023/12/11 18:34:20;;;;;;;15.02;8.63;;;5.90;99.90;;;;;;5107152;28;20055;-54
2023/12/11 18:36:46;;;;;;;23.58;9.32;;;5.90;99.90;;;;;;5105843;28;20043;-53
2023/12/11 18:39:13;;;;;;;29.55;13.85;;;5.90;99.90;;;;;;5095722;28;20471;-52
2023/12/11 18:41:42;;;;;;;30.73;11.75;;;5.90;99.90;;;;;;5106158;28;20844;-52
2023/12/11 18:44:08;;;;;;;38.47;14.50;;;5.90;99.90;;;;;;5103477;28;20033;-55
2023/12/11 18:46:34;;;;;;;48.05;15.05;;;5.90;99.90;;;;;;5105684;28;20097;-52
2023/12/11 18:49:00;;;;;;;18.92;9.38;;;5.80;99.90;;;;;;5106133;28;20028;-52
2023/12/11 18:51:27;;;;;;;35.58;12.35;;;5.80;99.90;;;;;;5095908;28;20029;-53
2023/12/11 18:53:53;;;;;;;27.58;12.70;;;5.80;99.90;;;;;;5105954;28;20019;-50
2023/12/11 18:56:19;;;;;;;25.25;10.85;;;5.80;99.90;;;;;;5105453;28;20055;-52
2023/12/11 18:58:45;;;;;;;19.30;9.32;;;5.90;99.90;;;;;;5105424;28;20034;-52
2023/12/11 19:01:12;;;;;;;19.23;11.43;;;5.90;99.90;;;;;;5105600;28;20028;-53
2023/12/11 19:03:38;;;;;;;19.02;8.48;;;5.90;99.90;;;;;;5106130;28;20023;-51
2023/12/11 19:06:04;;;;;;;19.20;9.45;;;5.90;99.90;;;;;;5106418;28;20110;-52
2023/12/11 19:08:29;;;;;;;15.95;8.50;;;5.90;99.90;;;;;;5105554;28;20027;-51
2023/12/11 19:10:55;;;;;;;17.98;8.95;;;5.90;99.90;;;;;;5106093;28;20352;-53
2023/12/11 19:13:21;;;;;;;18.70;8.70;;;5.90;99.90;;;;;;5105958;28;20028;-52
2023/12/11 19:15:47;;;;;;;21.33;10.18;;;6.00;99.90;;;;;;5102822;28;20035;-51
2023/12/11 19:18:12;;;;;;;19.73;9.02;;;5.90;99.90;;;;;;5105887;28;20097;-52
2023/12/11 19:20:39;;;;;;;21.92;9.82;;;6.00;99.90;;;;;;5105531;28;20020;-51
2023/12/11 19:23:05;;;;;;;23.73;11.00;;;6.00;99.90;;;;;;5105350;28;20027;-53
2023/12/11 19:25:31;;;;;;;18.35;9.85;;;6.00;99.90;;;;;;5105951;28;20016;-53
2023/12/11 19:27:56;;;;;;;24.95;12.07;;;6.00;99.90;;;;;;5105905;28;20057;-52
2023/12/11 19:30:23;;;;;;;26.38;13.07;;;6.00;99.90;;;;;;5106197;28;20031;-52
2023/12/11 19:32:49;;;;;;;31.55;15.65;;;6.00;99.90;;;;;;5105296;28;20382;-50
2023/12/11 19:35:15;;;;;;;30.10;13.55;;;5.90;99.90;;;;;;5105237;28;20046;-56
2023/12/11 19:37:40;;;;;;;34.63;15.05;;;6.00;99.90;;;;;;5105461;28;20036;-53
2023/12/11 19:40:07;;;;;;;30.60;13.25;;;6.00;99.90;;;;;;5106079;28;20095;-53
2023/12/11 19:42:34;;;;;;;30.25;13.57;;;6.00;99.90;;;;;;5096534;28;20211;-53
2023/12/11 19:45:00;;;;;;;30.48;13.20;;;5.90;99.90;;;;;;5109244;28;20034;-51
2023/12/11 19:47:26;;;;;;;29.00;13.07;;;5.90;99.90;;;;;;5109466;28;20035;-52
2023/12/11 19:49:53;;;;;;;23.42;11.80;;;5.90;99.90;;;;;;5109537;28;20058;-51
2023/12/11 19:52:19;;;;;;;28.23;13.15;;;5.80;99.90;;;;;;5109487;28;20493;-51
2023/12/11 19:54:45;;;;;;;22.02;11.55;;;5.80;99.90;;;;;;5109322;28;20031;-51
2023/12/11 19:57:10;;;;;;;27.90;13.52;;;5.80;99.90;;;;;;5109093;28;20055;-52
2023/12/11 19:59:37;;;;;;;27.55;13.90;;;5.70;99.90;;;;;;5099935;28;20092;-51
2023/12/11 20:02:03;;;;;;;23.85;13.13;;;5.70;99.90;;;;;;5108947;28;20071;-51
2023/12/11 20:04:30;;;;;;;27.67;12.95;;;5.70;99.90;;;;;;5108784;28;20055;-51
2023/12/11 20:06:55;;;;;;;24.88;11.45;;;5.70;99.90;;;;;;5108961;28;20026;-53
2023/12/11 20:09:21;;;;;;;26.23;11.32;;;5.70;99.90;;;;;;5108557;28;20028;-53
2023/12/11 20:11:48;;;;;;;26.85;12.65;;;5.70;99.90;;;;;;5108953;28;20019;-51
2023/12/11 20:14:13;;;;;;;24.25;12.15;;;5.60;99.90;;;;;;5108754;28;20569;-53
2023/12/11 20:16:39;;;;;;;25.98;11.38;;;5.60;99.90;;;;;;5108685;28;20053;-52
2023/12/11 20:19:04;;;;;;;21.58;11.35;;;5.70;99.90;;;;;;5098630;28;20030;-51
2023/12/11 20:21:30;;;;;;;22.95;12.15;;;5.70;99.90;;;;;;5109177;28;20031;-50
2023/12/11 20:23:56;;;;;;;23.45;11.55;;;5.70;99.90;;;;;;5109274;28;20024;-56
2023/12/11 20:26:23;;;;;;;22.95;11.80;;;5.70;99.90;;;;;;5108662;28;20047;-54
2023/12/11 20:28:48;;;;;;;22.25;11.73;;;5.70;99.90;;;;;;5105931;28;20032;-51
2023/12/11 20:31:16;;;;;;;26.00;12.40;;;5.70;99.90;;;;;;5108254;28;20027;-53
2023/12/11 20:33:42;;;;;;;20.77;11.32;;;5.70;99.90;;;;;;5108450;28;20355;-53
2023/12/11 20:36:18;;;;;;;27.73;11.60;;;5.80;99.90;;;;;;5108516;27;20093;-53
2023/12/11 20:38:47;;;;;;;29.33;12.75;;;5.80;99.90;;;;;;5110106;28;20111;-53
2023/12/11 20:41:17;;;;;;;25.00;12.63;;;5.80;99.90;;;;;;5094924;28;20023;-53
2023/12/11 20:43:43;;;;;;;24.73;13.20;;;5.80;99.90;;;;;;5089318;28;20028;-51
2023/12/11 20:46:09;;;;;;;21.08;11.93;;;5.80;99.90;;;;;;5088710;28;20466;-53
2023/12/11 20:48:34;;;;;;;28.42;14.15;;;5.80;99.90;;;;;;5087881;28;20081;-49
2023/12/11 20:51:00;;;;;;;30.42;15.05;;;5.70;99.90;;;;;;5089001;28;20120;-52
2023/12/11 20:53:27;;;;;;;26.40;13.38;;;5.70;99.90;;;;;;5088520;28;20202;-50
2023/12/11 20:55:52;;;;;;;29.75;14.75;;;5.70;99.90;;;;;;5088199;28;20059;-53
2023/12/11 20:58:18;;;;;;;29.25;15.50;;;5.70;99.90;;;;;;5088000;28;20040;-50
2023/12/11 21:00:43;;;;;;;25.77;14.38;;;5.60;99.90;;;;;;5087898;28;20035;-51
2023/12/11 21:03:09;;;;;;;29.77;16.95;;;5.60;99.90;;;;;;5088736;28;20035;-50
2023/12/11 21:05:37;;;;;;;30.73;15.02;;;5.60;99.90;;;;;;5088437;28;20027;-53
2023/12/11 21:08:03;;;;;;;29.20;15.25;;;5.60;99.90;;;;;;5088854;28;20528;-53
2023/12/11 21:10:29;;;;;;;30.40;15.32;;;5.60;99.90;;;;;;5089021;28;20031;-51
2023/12/11 21:12:55;;;;;;;28.25;15.18;;;5.70;99.90;;;;;;5096284;28;20126;-53
2023/12/11 21:15:20;;;;;;;26.35;14.00;;;5.70;99.90;;;;;;5107743;28;20055;-51
2023/12/11 21:17:46;;;;;;;27.48;14.80;;;5.70;99.90;;;;;;5108220;28;20143;-52
2023/12/11 21:20:11;;;;;;;32.03;16.48;;;5.70;99.90;;;;;;5108085;28;20071;-54
2023/12/11 21:22:37;;;;;;;33.42;16.17;;;5.70;99.90;;;;;;5108169;28;20059;-56
2023/12/11 21:25:04;;;;;;;34.83;16.02;;;5.70;99.90;;;;;;5108832;28;20053;-53
2023/12/11 21:27:30;;;;;;;39.42;17.70;;;5.70;99.90;;;;;;5107999;28;20038;-50
2023/12/11 21:29:55;;;;;;;32.25;15.18;;;5.70;99.90;;;;;;5107666;28;20378;-55
2023/12/11 21:32:21;;;;;;;30.67;15.65;;;5.70;99.90;;;;;;5107950;28;20502;-53
2023/12/11 21:34:46;;;;;;;32.83;16.52;;;5.70;99.90;;;;;;5108001;28;20455;-50
2023/12/11 21:37:12;;;;;;;38.38;16.77;;;5.60;99.90;;;;;;5107039;28;20482;-57
2023/12/11 21:39:38;;;;;;;38.15;16.30;;;5.60;99.90;;;;;;5106818;28;20016;-52
2023/12/11 21:42:04;;;;;;;37.50;16.27;;;5.70;99.90;;;;;;5106772;28;20070;-56
2023/12/11 21:44:30;;;;;;;29.67;15.73;;;5.60;99.90;;;;;;5106331;28;20442;-53
2023/12/11 21:46:56;;;;;;;28.63;15.07;;;5.70;99.90;;;;;;5106923;28;20027;-53
2023/12/11 21:49:22;;;;;;;38.72;17.83;;;5.70;99.90;;;;;;5106820;28;20027;-54
2023/12/11 21:51:51;;;;;;;37.58;18.05;;;5.60;99.90;;;;;;5106813;28;20173;-52
2023/12/11 21:54:18;;;;;;;34.78;18.02;;;5.70;99.90;;;;;;5104267;28;20050;-51
2023/12/11 21:56:44;;;;;;;36.92;18.65;;;5.60;99.90;;;;;;5106493;28;20081;-52
2023/12/11 21:59:10;;;;;;;38.10;17.48;;;5.70;99.90;;;;;;5106190;28;20089;-55
2023/12/11 22:01:35;;;;;;;40.72;19.85;;;5.60;99.90;;;;;;5108108;28;20023;-52
2023/12/11 22:04:02;;;;;;;40.10;18.27;;;5.50;99.90;;;;;;5107541;28;20545;-54
2023/12/11 22:06:27;;;;;;;31.17;16.37;;;5.60;99.90;;;;;;5106236;28;20024;-51
2023/12/11 22:08:53;;;;;;;35.20;16.73;;;5.50;99.90;;;;;;5106594;28;20662;-50
2023/12/11 22:11:19;;;;;;;39.28;18.52;;;5.50;99.90;;;;;;5097168;28;20028;-53
2023/12/11 22:13:45;;;;;;;39.05;18.63;;;5.50;99.90;;;;;;5107351;27;20035;-56
2023/12/11 22:16:13;;;;;;;40.22;19.65;;;5.50;99.90;;;;;;5107782;28;20612;-61
2023/12/11 22:18:39;;;;;;;41.90;18.30;;;5.50;99.90;;;;;;5107004;28;20450;-50
2023/12/11 22:21:05;;;;;;;36.40;18.90;;;5.50;99.90;;;;;;5097240;28;20103;-54
2023/12/11 22:23:31;;;;;;;39.22;18.08;;;5.50;99.90;;;;;;5107385;28;20024;-54
2023/12/11 22:25:57;;;;;;;37.83;17.88;;;5.40;99.90;;;;;;5107055;28;20486;-49
2023/12/11 22:28:22;;;;;;;38.83;19.25;;;5.40;99.90;;;;;;5106990;28;20102;-50
2023/12/11 22:30:48;;;;;;;42.95;20.25;;;5.40;99.90;;;;;;5104939;28;20084;-51
2023/12/11 22:33:14;;;;;;;36.50;17.85;;;5.40;99.90;;;;;;5106649;28;20028;-56
2023/12/11 22:35:39;;;;;;;38.13;17.23;;;5.50;99.90;;;;;;5106488;28;20386;-52
2023/12/11 22:38:05;;;;;;;35.15;17.30;;;5.50;99.90;;;;;;5105906;28;20058;-47
2023/12/11 22:40:30;;;;;;;31.70;17.13;;;5.50;99.90;;;;;;5106146;28;20031;-48
2023/12/11 22:42:56;;;;;;;41.50;19.33;;;5.40;99.90;;;;;;5105736;28;20011;-50
2023/12/11 22:45:22;;;;;;;45.42;18.90;;;5.40;99.90;;;;;;5106097;28;20024;-53
2023/12/11 22:47:48;;;;;;;35.05;17.45;;;5.40;99.90;;;;;;5106784;28;20024;-61
